sensor_id;sensor_type;location;lat;lon;timestamp;P1;durP1;ratioP1;P2;durP2;ratioP2
982;SDS011;480;48.124;11.578;2023-06-26T00:02:16;8.80;;;7.70;;
982;SDS011;480;48.124;11.578;2023-06-26T00:04:43;8.90;;;7.53;;
982;SDS011;480;48.124;11.578;2023-06-26T00:07:10;8.60;;;7.80;;
982;SDS011;480;48.124;11.578;2023-06-26T00:09:37;9.07;;;8.17;;
982;SDS011;480;48.124;11.578;2023-06-26T00:12:04;8.10;;;7.03;;
982;SDS011;480;48.124;11.578;2023-06-26T00:14:33;9.03;;;7.30;;
982;SDS011;480;48.124;11.578;2023-06-26T00:17:00;9.50;;;8.57;;
982;SDS011;480;48.124;11.578;2023-06-26T00:19:27;8.40;;;7.50;;
982;SDS011;480;48.124;11.578;2023-06-26T00:21:54;8.00;;;6.90;;
982;SDS011;480;48.124;11.578;2023-06-26T00:24:21;8.70;;;7.80;;
982;SDS011;480;48.124;11.578;2023-06-26T00:26:48;8.33;;;7.17;;
982;SDS011;480;48.124;11.578;2023-06-26T00:29:15;11.53;;;7.50;;
982;SDS011;480;48.124;11.578;2023-06-26T00:31:44;9.43;;;7.40;;
982;SDS011;480;48.124;11.578;2023-06-26T00:34:11;8.27;;;7.10;;
982;SDS011;480;48.124;11.578;2023-06-26T00:36:38;8.37;;;6.80;;
982;SDS011;480;48.124;11.578;2023-06-26T00:39:06;8.20;;;7.20;;
982;SDS011;480;48.124;11.578;2023-06-26T00:41:33;7.47;;;6.77;;
982;SDS011;480;48.124;11.578;2023-06-26T00:44:00;7.07;;;6.17;;
982;SDS011;480;48.124;11.578;2023-06-26T00:46:27;8.40;;;7.00;;
982;SDS011;480;48.124;11.578;2023-06-26T00:48:55;8.07;;;7.23;;
982;SDS011;480;48.124;11.578;2023-06-26T00:51:25;7.17;;;6.47;;
982;SDS011;480;48.124;11.578;2023-06-26T00:53:53;6.87;;;6.10;;
982;SDS011;480;48.124;11.578;2023-06-26T00:56:21;8.07;;;7.20;;
982;SDS011;480;48.124;11.578;2023-06-26T00:58:48;7.27;;;6.50;;
982;SDS011;480;48.124;11.578;2023-06-26T01:01:15;6.57;;;5.90;;
982;SDS011;480;48.124;11.578;2023-06-26T01:03:42;10.40;;;6.30;;
982;SDS011;480;48.124;11.578;2023-06-26T01:06:13;9.70;;;7.10;;
982;SDS011;480;48.124;11.578;2023-06-26T01:08:41;7.67;;;6.20;;
982;SDS011;480;48.124;11.578;2023-06-26T01:11:09;8.17;;;7.37;;
982;SDS011;480;48.124;11.578;2023-06-26T01:13:36;6.50;;;5.77;;
982;SDS011;480;48.124;11.578;2023-06-26T01:16:04;6.90;;;5.80;;
982;SDS011;480;48.124;11.578;2023-06-26T01:18:32;8.50;;;6.13;;
982;SDS011;480;48.124;11.578;2023-06-26T01:21:00;6.70;;;6.03;;
982;SDS011;480;48.124;11.578;2023-06-26T01:23:31;6.70;;;6.00;;
982;SDS011;480;48.124;11.578;2023-06-26T01:28:49;7.50;;;6.80;;
982;SDS011;480;48.124;11.578;2023-06-26T01:31:17;6.80;;;6.10;;
982;SDS011;480;48.124;11.578;2023-06-26T01:33:46;9.23;;;5.63;;
982;SDS011;480;48.124;11.578;2023-06-26T01:36:13;6.67;;;6.10;;
982;SDS011;480;48.124;11.578;2023-06-26T01:38:40;7.13;;;5.17;;
982;SDS011;480;48.124;11.578;2023-06-26T01:41:07;7.30;;;6.17;;
982;SDS011;480;48.124;11.578;2023-06-26T01:43:39;6.73;;;6.00;;
982;SDS011;480;48.124;11.578;2023-06-26T01:46:14;7.17;;;5.70;;
982;SDS011;480;48.124;11.578;2023-06-26T01:48:49;8.13;;;6.00;;
982;SDS011;480;48.124;11.578;2023-06-26T01:51:21;7.53;;;5.93;;
982;SDS011;480;48.124;11.578;2023-06-26T01:53:56;7.23;;;5.80;;
982;SDS011;480;48.124;11.578;2023-06-26T01:56:25;6.27;;;5.57;;
982;SDS011;480;48.124;11.578;2023-06-26T01:58:56;6.37;;;5.77;;
982;SDS011;480;48.124;11.578;2023-06-26T02:01:24;6.07;;;5.23;;
982;SDS011;480;48.124;11.578;2023-06-26T02:03:50;7.97;;;5.97;;
982;SDS011;480;48.124;11.578;2023-06-26T02:06:17;7.87;;;5.97;;
982;SDS011;480;48.124;11.578;2023-06-26T02:08:45;8.30;;;6.20;;
982;SDS011;480;48.124;11.578;2023-06-26T02:11:12;6.73;;;6.03;;
982;SDS011;480;48.124;11.578;2023-06-26T02:13:39;6.23;;;5.60;;
982;SDS011;480;48.124;11.578;2023-06-26T02:16:07;6.80;;;5.90;;
982;SDS011;480;48.124;11.578;2023-06-26T02:18:34;7.37;;;6.30;;
982;SDS011;480;48.124;11.578;2023-06-26T02:21:02;7.90;;;5.53;;
982;SDS011;480;48.124;11.578;2023-06-26T02:23:30;6.33;;;5.63;;
982;SDS011;480;48.124;11.578;2023-06-26T02:25:57;7.30;;;6.00;;
982;SDS011;480;48.124;11.578;2023-06-26T02:28:24;7.37;;;6.63;;
982;SDS011;480;48.124;11.578;2023-06-26T02:30:51;6.77;;;6.17;;
982;SDS011;480;48.124;11.578;2023-06-26T02:33:20;7.73;;;6.00;;
982;SDS011;480;48.124;11.578;2023-06-26T02:35:47;7.00;;;6.03;;
982;SDS011;480;48.124;11.578;2023-06-26T02:38:15;7.30;;;5.80;;
982;SDS011;480;48.124;11.578;2023-06-26T02:40:42;6.73;;;5.90;;
982;SDS011;480;48.124;11.578;2023-06-26T02:43:09;6.13;;;5.50;;
982;SDS011;480;48.124;11.578;2023-06-26T02:45:36;7.07;;;6.37;;
982;SDS011;480;48.124;11.578;2023-06-26T02:48:03;7.27;;;6.57;;
982;SDS011;480;48.124;11.578;2023-06-26T02:50:31;7.53;;;5.93;;
982;SDS011;480;48.124;11.578;2023-06-26T02:52:58;7.50;;;6.00;;
982;SDS011;480;48.124;11.578;2023-06-26T02:55:25;7.37;;;6.57;;
982;SDS011;480;48.124;11.578;2023-06-26T02:57:53;6.80;;;5.60;;
982;SDS011;480;48.124;11.578;2023-06-26T03:00:20;7.77;;;5.73;;
982;SDS011;480;48.124;11.578;2023-06-26T03:02:47;7.20;;;5.77;;
982;SDS011;480;48.124;11.578;2023-06-26T03:05:13;7.13;;;6.17;;
982;SDS011;480;48.124;11.578;2023-06-26T03:07:42;6.60;;;5.90;;
982;SDS011;480;48.124;11.578;2023-06-26T03:10:09;8.93;;;7.70;;
982;SDS011;480;48.124;11.578;2023-06-26T03:12:36;8.13;;;6.43;;
982;SDS011;480;48.124;11.578;2023-06-26T03:15:03;7.27;;;6.10;;
982;SDS011;480;48.124;11.578;2023-06-26T03:17:30;8.30;;;6.00;;
982;SDS011;480;48.124;11.578;2023-06-26T03:19:57;8.00;;;5.87;;
982;SDS011;480;48.124;11.578;2023-06-26T03:22:24;6.53;;;5.80;;
982;SDS011;480;48.124;11.578;2023-06-26T03:24:52;7.63;;;6.20;;
982;SDS011;480;48.124;11.578;2023-06-26T03:27:20;8.20;;;5.80;;
982;SDS011;480;48.124;11.578;2023-06-26T03:29:47;8.67;;;6.40;;
982;SDS011;480;48.124;11.578;2023-06-26T03:32:14;6.53;;;5.67;;
982;SDS011;480;48.124;11.578;2023-06-26T03:34:41;6.77;;;6.07;;
982;SDS011;480;48.124;11.578;2023-06-26T03:37:08;10.33;;;6.10;;
982;SDS011;480;48.124;11.578;2023-06-26T03:39:35;5.67;;;5.07;;
982;SDS011;480;48.124;11.578;2023-06-26T03:42:04;6.77;;;6.07;;
982;SDS011;480;48.124;11.578;2023-06-26T03:44:31;10.10;;;7.17;;
982;SDS011;480;48.124;11.578;2023-06-26T03:46:58;9.00;;;7.07;;
982;SDS011;480;48.124;11.578;2023-06-26T03:49:25;10.30;;;7.10;;
982;SDS011;480;48.124;11.578;2023-06-26T03:51:52;9.30;;;6.70;;
982;SDS011;480;48.124;11.578;2023-06-26T03:54:19;6.53;;;5.63;;
982;SDS011;480;48.124;11.578;2023-06-26T03:56:46;7.27;;;6.10;;
982;SDS011;480;48.124;11.578;2023-06-26T03:59:15;8.70;;;6.80;;
982;SDS011;480;48.124;11.578;2023-06-26T04:01:42;8.03;;;5.97;;
982;SDS011;480;48.124;11.578;2023-06-26T04:04:08;8.03;;;5.47;;
982;SDS011;480;48.124;11.578;2023-06-26T04:06:35;7.07;;;6.43;;
982;SDS011;480;48.124;11.578;2023-06-26T04:09:02;7.10;;;5.77;;
982;SDS011;480;48.124;11.578;2023-06-26T04:11:29;10.40;;;7.03;;
982;SDS011;480;48.124;11.578;2023-06-26T04:13:57;7.47;;;6.43;;
982;SDS011;480;48.124;11.578;2023-06-26T04:16:25;7.40;;;6.50;;
982;SDS011;480;48.124;11.578;2023-06-26T04:18:52;7.73;;;6.60;;
982;SDS011;480;48.124;11.578;2023-06-26T04:21:21;8.63;;;5.97;;
982;SDS011;480;48.124;11.578;2023-06-26T04:23:50;8.13;;;6.47;;
982;SDS011;480;48.124;11.578;2023-06-26T04:26:17;7.67;;;6.47;;
982;SDS011;480;48.124;11.578;2023-06-26T04:28:44;7.10;;;6.10;;
982;SDS011;480;48.124;11.578;2023-06-26T04:31:11;8.67;;;6.60;;
982;SDS011;480;48.124;11.578;2023-06-26T04:33:39;6.83;;;6.07;;
982;SDS011;480;48.124;11.578;2023-06-26T04:36:06;6.57;;;5.83;;
982;SDS011;480;48.124;11.578;2023-06-26T04:38:33;7.67;;;6.37;;
982;SDS011;480;48.124;11.578;2023-06-26T04:41:00;7.73;;;6.43;;
982;SDS011;480;48.124;11.578;2023-06-26T04:43:28;8.50;;;6.67;;
982;SDS011;480;48.124;11.578;2023-06-26T04:45:55;8.83;;;6.47;;
982;SDS011;480;48.124;11.578;2023-06-26T04:48:22;8.60;;;7.60;;
982;SDS011;480;48.124;11.578;2023-06-26T04:50:50;8.60;;;6.50;;
982;SDS011;480;48.124;11.578;2023-06-26T04:53:18;8.30;;;6.23;;
982;SDS011;480;48.124;11.578;2023-06-26T04:55:46;7.10;;;6.50;;
982;SDS011;480;48.124;11.578;2023-06-26T04:58:13;5.70;;;4.70;;
982;SDS011;480;48.124;11.578;2023-06-26T05:00:40;6.17;;;5.57;;
982;SDS011;480;48.124;11.578;2023-06-26T05:03:08;6.70;;;5.60;;
982;SDS011;480;48.124;11.578;2023-06-26T05:05:35;7.10;;;5.90;;
982;SDS011;480;48.124;11.578;2023-06-26T05:08:14;8.00;;;5.87;;
982;SDS011;480;48.124;11.578;2023-06-26T05:10:42;7.47;;;6.67;;
982;SDS011;480;48.124;11.578;2023-06-26T05:13:09;8.73;;;6.53;;
982;SDS011;480;48.124;11.578;2023-06-26T05:15:36;8.67;;;6.93;;
982;SDS011;480;48.124;11.578;2023-06-26T05:18:03;6.30;;;5.67;;
982;SDS011;480;48.124;11.578;2023-06-26T05:20:31;8.60;;;6.60;;
982;SDS011;480;48.124;11.578;2023-06-26T05:22:58;6.80;;;5.93;;
982;SDS011;480;48.124;11.578;2023-06-26T05:25:28;7.43;;;6.63;;
982;SDS011;480;48.124;11.578;2023-06-26T05:27:56;6.87;;;6.17;;
982;SDS011;480;48.124;11.578;2023-06-26T05:30:23;8.43;;;6.10;;
982;SDS011;480;48.124;11.578;2023-06-26T05:32:51;6.73;;;5.47;;
982;SDS011;480;48.124;11.578;2023-06-26T05:35:20;8.47;;;6.57;;
982;SDS011;480;48.124;11.578;2023-06-26T05:37:48;8.23;;;6.80;;
982;SDS011;480;48.124;11.578;2023-06-26T05:40:17;7.33;;;5.83;;
982;SDS011;480;48.124;11.578;2023-06-26T05:42:46;7.47;;;6.00;;
982;SDS011;480;48.124;11.578;2023-06-26T05:45:14;7.60;;;6.03;;
982;SDS011;480;48.124;11.578;2023-06-26T05:47:42;9.50;;;6.70;;
982;SDS011;480;48.124;11.578;2023-06-26T05:50:09;10.27;;;7.40;;
982;SDS011;480;48.124;11.578;2023-06-26T05:52:37;6.73;;;6.03;;
982;SDS011;480;48.124;11.578;2023-06-26T05:55:05;9.63;;;7.23;;
982;SDS011;480;48.124;11.578;2023-06-26T05:57:33;8.13;;;6.77;;
982;SDS011;480;48.124;11.578;2023-06-26T06:00:04;8.60;;;6.57;;
982;SDS011;480;48.124;11.578;2023-06-26T06:02:35;8.63;;;6.53;;
982;SDS011;480;48.124;11.578;2023-06-26T06:05:03;7.87;;;6.47;;
982;SDS011;480;48.124;11.578;2023-06-26T06:07:31;7.30;;;6.57;;
982;SDS011;480;48.124;11.578;2023-06-26T06:09:58;6.93;;;5.93;;
982;SDS011;480;48.124;11.578;2023-06-26T06:12:26;8.20;;;5.90;;
982;SDS011;480;48.124;11.578;2023-06-26T06:14:53;8.90;;;7.10;;
982;SDS011;480;48.124;11.578;2023-06-26T06:17:21;6.53;;;5.43;;
982;SDS011;480;48.124;11.578;2023-06-26T06:19:49;8.60;;;6.13;;
982;SDS011;480;48.124;11.578;2023-06-26T06:22:16;9.60;;;7.00;;
982;SDS011;480;48.124;11.578;2023-06-26T06:24:43;8.73;;;6.80;;
982;SDS011;480;48.124;11.578;2023-06-26T06:27:10;7.60;;;6.70;;
982;SDS011;480;48.124;11.578;2023-06-26T06:29:38;7.97;;;6.13;;
982;SDS011;480;48.124;11.578;2023-06-26T06:32:05;8.17;;;6.40;;
982;SDS011;480;48.124;11.578;2023-06-26T06:34:34;10.43;;;7.10;;
982;SDS011;480;48.124;11.578;2023-06-26T06:37:01;9.17;;;6.83;;
982;SDS011;480;48.124;11.578;2023-06-26T06:39:29;7.90;;;6.87;;
982;SDS011;480;48.124;11.578;2023-06-26T06:41:56;9.70;;;7.07;;
982;SDS011;480;48.124;11.578;2023-06-26T06:44:23;7.43;;;6.20;;
982;SDS011;480;48.124;11.578;2023-06-26T06:46:50;8.43;;;6.30;;
982;SDS011;480;48.124;11.578;2023-06-26T06:49:17;8.10;;;5.67;;
982;SDS011;480;48.124;11.578;2023-06-26T06:51:46;9.77;;;5.57;;
982;SDS011;480;48.124;11.578;2023-06-26T06:54:14;13.30;;;11.70;;
982;SDS011;480;48.124;11.578;2023-06-26T06:56:42;12.17;;;9.63;;
982;SDS011;480;48.124;11.578;2023-06-26T06:59:09;14.40;;;13.00;;
982;SDS011;480;48.124;11.578;2023-06-26T07:01:36;1998.57;;;999.90;;
982;SDS011;480;48.124;11.578;2023-06-26T07:04:03;1999.90;;;999.90;;
982;SDS011;480;48.124;11.578;2023-06-26T07:06:30;1999.90;;;999.90;;
982;SDS011;480;48.124;11.578;2023-06-26T07:08:59;1999.90;;;999.90;;
982;SDS011;480;48.124;11.578;2023-06-26T07:11:26;1999.90;;;993.63;;
982;SDS011;480;48.124;11.578;2023-06-26T07:13:53;1999.90;;;999.90;;
982;SDS011;480;48.124;11.578;2023-06-26T07:16:22;1999.90;;;999.90;;
982;SDS011;480;48.124;11.578;2023-06-26T07:18:49;1999.90;;;999.90;;
982;SDS011;480;48.124;11.578;2023-06-26T07:21:17;1999.90;;;886.03;;
982;SDS011;480;48.124;11.578;2023-06-26T07:23:44;1999.90;;;999.90;;
982;SDS011;480;48.124;11.578;2023-06-26T07:26:13;1999.90;;;999.90;;
982;SDS011;480;48.124;11.578;2023-06-26T07:28:41;1999.90;;;999.90;;
982;SDS011;480;48.124;11.578;2023-06-26T07:31:07;1999.90;;;999.90;;
982;SDS011;480;48.124;11.578;2023-06-26T07:33:35;1999.90;;;999.90;;
982;SDS011;480;48.124;11.578;2023-06-26T07:36:02;1999.90;;;999.90;;
982;SDS011;480;48.124;11.578;2023-06-26T07:38:29;1999.90;;;999.90;;
982;SDS011;480;48.124;11.578;2023-06-26T07:40:56;1999.90;;;999.90;;
982;SDS011;480;48.124;11.578;2023-06-26T07:43:24;1999.90;;;999.90;;
982;SDS011;480;48.124;11.578;2023-06-26T07:45:51;1999.90;;;999.90;;
982;SDS011;480;48.124;11.578;2023-06-26T07:48:19;1999.90;;;999.90;;
982;SDS011;480;48.124;11.578;2023-06-26T07:50:46;1999.90;;;999.90;;
982;SDS011;480;48.124;11.578;2023-06-26T07:53:13;1999.90;;;999.90;;
982;SDS011;480;48.124;11.578;2023-06-26T07:55:40;1999.90;;;999.90;;
982;SDS011;480;48.124;11.578;2023-06-26T07:58:08;1999.90;;;999.90;;
982;SDS011;480;48.124;11.578;2023-06-26T08:00:36;1999.90;;;999.90;;
982;SDS011;480;48.124;11.578;2023-06-26T08:03:03;1999.90;;;999.90;;
982;SDS011;480;48.124;11.578;2023-06-26T08:05:30;1999.90;;;999.90;;
982;SDS011;480;48.124;11.578;2023-06-26T08:07:57;1999.90;;;999.90;;
982;SDS011;480;48.124;11.578;2023-06-26T08:10:26;1999.90;;;999.90;;
982;SDS011;480;48.124;11.578;2023-06-26T08:12:53;1999.90;;;999.90;;
982;SDS011;480;48.124;11.578;2023-06-26T08:15:21;1999.90;;;999.90;;
982;SDS011;480;48.124;11.578;2023-06-26T08:17:49;1999.90;;;999.90;;
982;SDS011;480;48.124;11.578;2023-06-26T08:20:16;1999.90;;;999.90;;
982;SDS011;480;48.124;11.578;2023-06-26T08:22:44;1999.90;;;999.90;;
982;SDS011;480;48.124;11.578;2023-06-26T08:25:13;1999.90;;;999.90;;
982;SDS011;480;48.124;11.578;2023-06-26T08:27:40;1999.90;;;999.90;;
982;SDS011;480;48.124;11.578;2023-06-26T08:30:07;1999.90;;;999.90;;
982;SDS011;480;48.124;11.578;2023-06-26T08:32:34;1999.90;;;999.90;;
982;SDS011;480;48.124;11.578;2023-06-26T08:35:02;1999.90;;;999.90;;
982;SDS011;480;48.124;11.578;2023-06-26T08:37:30;1999.90;;;999.90;;
982;SDS011;480;48.124;11.578;2023-06-26T08:39:58;1999.90;;;999.90;;
982;SDS011;480;48.124;11.578;2023-06-26T08:42:26;1999.90;;;999.90;;
982;SDS011;480;48.124;11.578;2023-06-26T08:44:53;1999.90;;;999.90;;
982;SDS011;480;48.124;11.578;2023-06-26T08:47:20;1999.90;;;999.90;;
982;SDS011;480;48.124;11.578;2023-06-26T08:49:50;1999.90;;;999.90;;
982;SDS011;480;48.124;11.578;2023-06-26T08:52:23;1999.90;;;999.90;;
982;SDS011;480;48.124;11.578;2023-06-26T08:54:57;1999.90;;;999.90;;
982;SDS011;480;48.124;11.578;2023-06-26T08:57:26;1999.90;;;999.90;;
982;SDS011;480;48.124;11.578;2023-06-26T08:59:53;1831.37;;;735.80;;
982;SDS011;480;48.124;11.578;2023-06-26T09:02:21;1999.90;;;999.90;;
982;SDS011;480;48.124;11.578;2023-06-26T09:04:48;1999.90;;;999.90;;
982;SDS011;480;48.124;11.578;2023-06-26T09:07:16;1999.90;;;999.90;;
982;SDS011;480;48.124;11.578;2023-06-26T09:09:45;1999.90;;;999.90;;
982;SDS011;480;48.124;11.578;2023-06-26T09:12:12;1394.40;;;998.00;;
982;SDS011;480;48.124;11.578;2023-06-26T09:14:41;148.50;;;90.53;;
982;SDS011;480;48.124;11.578;2023-06-26T09:17:08;38.90;;;28.67;;
982;SDS011;480;48.124;11.578;2023-06-26T09:19:36;77.87;;;37.93;;
982;SDS011;480;48.124;11.578;2023-06-26T09:22:03;131.80;;;63.83;;
982;SDS011;480;48.124;11.578;2023-06-26T09:24:30;89.20;;;38.33;;
982;SDS011;480;48.124;11.578;2023-06-26T09:27:00;104.03;;;88.13;;
982;SDS011;480;48.124;11.578;2023-06-26T09:29:28;137.37;;;54.50;;
982;SDS011;480;48.124;11.578;2023-06-26T09:31:55;93.00;;;32.30;;
982;SDS011;480;48.124;11.578;2023-06-26T09:34:24;32.97;;;29.93;;
982;SDS011;480;48.124;11.578;2023-06-26T09:36:57;69.10;;;27.80;;
982;SDS011;480;48.124;11.578;2023-06-26T09:39:29;11.10;;;10.03;;
982;SDS011;480;48.124;11.578;2023-06-26T09:41:57;29.83;;;20.67;;
982;SDS011;480;48.124;11.578;2023-06-26T09:44:26;14.53;;;13.17;;
982;SDS011;480;48.124;11.578;2023-06-26T09:46:54;12.97;;;10.93;;
982;SDS011;480;48.124;11.578;2023-06-26T09:49:22;13.63;;;12.27;;
982;SDS011;480;48.124;11.578;2023-06-26T09:51:51;11.40;;;8.73;;
982;SDS011;480;48.124;11.578;2023-06-26T09:54:19;7.13;;;6.60;;
982;SDS011;480;48.124;11.578;2023-06-26T09:56:48;11.30;;;6.37;;
982;SDS011;480;48.124;11.578;2023-06-26T09:59:15;7.93;;;4.53;;
982;SDS011;480;48.124;11.578;2023-06-26T10:01:45;5.20;;;4.50;;
982;SDS011;480;48.124;11.578;2023-06-26T10:04:12;4.90;;;4.50;;
982;SDS011;480;48.124;11.578;2023-06-26T10:06:41;4.63;;;4.20;;
982;SDS011;480;48.124;11.578;2023-06-26T10:09:12;7.53;;;4.77;;
982;SDS011;480;48.124;11.578;2023-06-26T10:11:45;5.27;;;4.77;;
982;SDS011;480;48.124;11.578;2023-06-26T10:14:17;5.07;;;4.60;;
982;SDS011;480;48.124;11.578;2023-06-26T10:16:47;5.50;;;5.00;;
982;SDS011;480;48.124;11.578;2023-06-26T10:19:16;4.37;;;3.80;;
982;SDS011;480;48.124;11.578;2023-06-26T10:21:49;5.47;;;4.97;;
982;SDS011;480;48.124;11.578;2023-06-26T10:24:17;5.23;;;4.80;;
982;SDS011;480;48.124;11.578;2023-06-26T10:26:45;5.37;;;4.30;;
982;SDS011;480;48.124;11.578;2023-06-26T10:29:16;5.10;;;4.60;;
982;SDS011;480;48.124;11.578;2023-06-26T10:31:48;5.43;;;4.67;;
982;SDS011;480;48.124;11.578;2023-06-26T10:34:21;4.93;;;4.50;;
982;SDS011;480;48.124;11.578;2023-06-26T10:36:55;5.23;;;4.73;;
982;SDS011;480;48.124;11.578;2023-06-26T10:39:26;4.63;;;4.23;;
982;SDS011;480;48.124;11.578;2023-06-26T10:41:54;5.27;;;4.77;;
982;SDS011;480;48.124;11.578;2023-06-26T10:44:40;4.83;;;4.40;;
982;SDS011;480;48.124;11.578;2023-06-26T10:47:09;5.10;;;4.70;;
982;SDS011;480;48.124;11.578;2023-06-26T10:49:36;4.87;;;4.30;;
982;SDS011;480;48.124;11.578;2023-06-26T10:52:05;4.67;;;4.17;;
982;SDS011;480;48.124;11.578;2023-06-26T10:54:32;4.80;;;4.40;;
982;SDS011;480;48.124;11.578;2023-06-26T10:56:59;5.10;;;4.70;;
982;SDS011;480;48.124;11.578;2023-06-26T10:59:28;4.73;;;4.33;;
982;SDS011;480;48.124;11.578;2023-06-26T11:01:57;4.43;;;4.03;;
982;SDS011;480;48.124;11.578;2023-06-26T11:07:17;5.03;;;4.63;;
982;SDS011;480;48.124;11.578;2023-06-26T11:09:55;5.10;;;4.60;;
982;SDS011;480;48.124;11.578;2023-06-26T11:12:36;5.30;;;4.80;;
982;SDS011;480;48.124;11.578;2023-06-26T11:15:09;5.30;;;4.87;;
982;SDS011;480;48.124;11.578;2023-06-26T11:17:36;4.83;;;4.43;;
982;SDS011;480;48.124;11.578;2023-06-26T11:20:06;5.17;;;4.60;;
982;SDS011;480;48.124;11.578;2023-06-26T11:22:34;5.00;;;4.50;;
982;SDS011;480;48.124;11.578;2023-06-26T11:25:02;4.93;;;4.53;;
982;SDS011;480;48.124;11.578;2023-06-26T11:27:31;6.03;;;4.97;;
982;SDS011;480;48.124;11.578;2023-06-26T11:30:00;6.20;;;5.17;;
982;SDS011;480;48.124;11.578;2023-06-26T11:32:27;5.07;;;4.57;;
982;SDS011;480;48.124;11.578;2023-06-26T11:34:54;5.27;;;4.83;;
982;SDS011;480;48.124;11.578;2023-06-26T11:37:23;5.33;;;4.90;;
982;SDS011;480;48.124;11.578;2023-06-26T11:39:51;6.00;;;5.00;;
982;SDS011;480;48.124;11.578;2023-06-26T11:42:19;4.90;;;4.50;;
982;SDS011;480;48.124;11.578;2023-06-26T11:44:47;6.73;;;6.17;;
982;SDS011;480;48.124;11.578;2023-06-26T11:47:14;5.50;;;5.00;;
982;SDS011;480;48.124;11.578;2023-06-26T11:49:43;5.70;;;5.20;;
982;SDS011;480;48.124;11.578;2023-06-26T11:52:10;6.03;;;5.43;;
982;SDS011;480;48.124;11.578;2023-06-26T11:54:39;5.77;;;4.57;;
982;SDS011;480;48.124;11.578;2023-06-26T11:57:06;6.83;;;6.23;;
982;SDS011;480;48.124;11.578;2023-06-26T11:59:34;5.33;;;4.90;;
982;SDS011;480;48.124;11.578;2023-06-26T12:02:04;5.17;;;4.67;;
982;SDS011;480;48.124;11.578;2023-06-26T12:04:33;6.40;;;5.80;;
982;SDS011;480;48.124;11.578;2023-06-26T12:07:02;6.03;;;5.43;;
982;SDS011;480;48.124;11.578;2023-06-26T12:09:32;5.57;;;5.03;;
982;SDS011;480;48.124;11.578;2023-06-26T12:12:02;4.90;;;4.50;;
982;SDS011;480;48.124;11.578;2023-06-26T12:14:29;5.80;;;5.20;;
982;SDS011;480;48.124;11.578;2023-06-26T12:17:03;5.53;;;5.03;;
982;SDS011;480;48.124;11.578;2023-06-26T12:19:31;6.20;;;5.70;;
982;SDS011;480;48.124;11.578;2023-06-26T12:21:58;6.47;;;5.87;;
982;SDS011;480;48.124;11.578;2023-06-26T12:24:25;6.10;;;5.60;;
982;SDS011;480;48.124;11.578;2023-06-26T12:26:52;6.50;;;5.90;;
982;SDS011;480;48.124;11.578;2023-06-26T12:29:28;6.40;;;5.20;;
982;SDS011;480;48.124;11.578;2023-06-26T12:31:58;6.33;;;5.50;;
982;SDS011;480;48.124;11.578;2023-06-26T12:34:26;6.40;;;5.90;;
982;SDS011;480;48.124;11.578;2023-06-26T12:36:59;5.83;;;5.20;;
982;SDS011;480;48.124;11.578;2023-06-26T12:39:27;5.40;;;5.00;;
982;SDS011;480;48.124;11.578;2023-06-26T12:41:55;6.63;;;6.00;;
982;SDS011;480;48.124;11.578;2023-06-26T12:44:26;7.20;;;5.53;;
982;SDS011;480;48.124;11.578;2023-06-26T12:46:54;6.07;;;5.57;;
982;SDS011;480;48.124;11.578;2023-06-26T12:49:29;5.90;;;5.30;;
982;SDS011;480;48.124;11.578;2023-06-26T12:51:57;5.03;;;4.60;;
982;SDS011;480;48.124;11.578;2023-06-26T12:54:25;5.50;;;5.03;;
982;SDS011;480;48.124;11.578;2023-06-26T12:56:52;8.90;;;4.77;;
982;SDS011;480;48.124;11.578;2023-06-26T12:59:19;5.73;;;5.23;;
982;SDS011;480;48.124;11.578;2023-06-26T13:01:47;6.07;;;5.47;;
982;SDS011;480;48.124;11.578;2023-06-26T13:04:15;6.77;;;6.13;;
982;SDS011;480;48.124;11.578;2023-06-26T13:06:42;6.37;;;5.60;;
982;SDS011;480;48.124;11.578;2023-06-26T13:09:09;6.20;;;5.60;;
982;SDS011;480;48.124;11.578;2023-06-26T13:11:38;6.70;;;6.07;;
982;SDS011;480;48.124;11.578;2023-06-26T13:14:07;6.50;;;5.83;;
982;SDS011;480;48.124;11.578;2023-06-26T13:16:35;5.47;;;4.97;;
982;SDS011;480;48.124;11.578;2023-06-26T13:19:03;6.20;;;5.70;;
982;SDS011;480;48.124;11.578;2023-06-26T13:21:30;6.97;;;5.10;;
982;SDS011;480;48.124;11.578;2023-06-26T13:23:58;6.63;;;5.93;;
982;SDS011;480;48.124;11.578;2023-06-26T13:26:25;6.40;;;5.80;;
982;SDS011;480;48.124;11.578;2023-06-26T13:28:54;5.83;;;5.30;;
982;SDS011;480;48.124;11.578;2023-06-26T13:31:21;5.80;;;5.30;;
982;SDS011;480;48.124;11.578;2023-06-26T13:33:48;6.40;;;5.63;;
982;SDS011;480;48.124;11.578;2023-06-26T13:36:18;5.90;;;5.40;;
982;SDS011;480;48.124;11.578;2023-06-26T13:38:46;5.90;;;5.37;;
982;SDS011;480;48.124;11.578;2023-06-26T13:41:15;5.87;;;5.30;;
982;SDS011;480;48.124;11.578;2023-06-26T13:43:44;7.60;;;6.47;;
982;SDS011;480;48.124;11.578;2023-06-26T13:46:11;5.53;;;5.03;;
982;SDS011;480;48.124;11.578;2023-06-26T13:48:38;6.03;;;5.20;;
982;SDS011;480;48.124;11.578;2023-06-26T13:51:05;6.53;;;5.93;;
982;SDS011;480;48.124;11.578;2023-06-26T13:53:33;6.93;;;6.23;;
982;SDS011;480;48.124;11.578;2023-06-26T13:56:00;6.50;;;6.00;;
982;SDS011;480;48.124;11.578;2023-06-26T13:58:28;7.60;;;7.00;;
982;SDS011;480;48.124;11.578;2023-06-26T14:00:57;6.80;;;6.10;;
982;SDS011;480;48.124;11.578;2023-06-26T14:03:25;7.30;;;6.73;;
982;SDS011;480;48.124;11.578;2023-06-26T14:05:52;6.53;;;5.93;;
982;SDS011;480;48.124;11.578;2023-06-26T14:08:19;10.30;;;7.17;;
982;SDS011;480;48.124;11.578;2023-06-26T14:10:48;6.70;;;6.10;;
982;SDS011;480;48.124;11.578;2023-06-26T14:13:15;8.10;;;7.30;;
982;SDS011;480;48.124;11.578;2023-06-26T14:15:42;6.97;;;6.13;;
982;SDS011;480;48.124;11.578;2023-06-26T14:18:09;6.90;;;6.20;;
982;SDS011;480;48.124;11.578;2023-06-26T14:20:36;6.20;;;5.70;;
982;SDS011;480;48.124;11.578;2023-06-26T14:23:03;6.57;;;6.07;;
982;SDS011;480;48.124;11.578;2023-06-26T14:25:30;5.73;;;5.30;;
982;SDS011;480;48.124;11.578;2023-06-26T14:27:59;6.63;;;6.00;;
982;SDS011;480;48.124;11.578;2023-06-26T14:30:26;6.43;;;5.93;;
982;SDS011;480;48.124;11.578;2023-06-26T14:32:53;6.07;;;5.57;;
982;SDS011;480;48.124;11.578;2023-06-26T14:35:20;6.40;;;5.83;;
982;SDS011;480;48.124;11.578;2023-06-26T14:37:48;6.13;;;5.63;;
982;SDS011;480;48.124;11.578;2023-06-26T14:40:15;6.50;;;5.90;;
982;SDS011;480;48.124;11.578;2023-06-26T14:42:42;5.80;;;5.30;;
982;SDS011;480;48.124;11.578;2023-06-26T14:45:12;5.67;;;5.17;;
982;SDS011;480;48.124;11.578;2023-06-26T14:47:38;6.00;;;5.40;;
982;SDS011;480;48.124;11.578;2023-06-26T14:50:06;6.03;;;5.50;;
982;SDS011;480;48.124;11.578;2023-06-26T14:52:34;6.03;;;5.43;;
982;SDS011;480;48.124;11.578;2023-06-26T14:55:00;6.47;;;5.87;;
982;SDS011;480;48.124;11.578;2023-06-26T14:57:28;5.70;;;5.20;;
982;SDS011;480;48.124;11.578;2023-06-26T14:59:55;6.03;;;5.53;;
982;SDS011;480;48.124;11.578;2023-06-26T15:02:23;6.30;;;5.80;;
982;SDS011;480;48.124;11.578;2023-06-26T15:04:50;7.27;;;6.47;;
982;SDS011;480;48.124;11.578;2023-06-26T15:07:17;6.17;;;5.77;;
982;SDS011;480;48.124;11.578;2023-06-26T15:09:44;6.27;;;5.67;;
982;SDS011;480;48.124;11.578;2023-06-26T15:12:11;6.50;;;6.03;;
982;SDS011;480;48.124;11.578;2023-06-26T15:14:38;6.17;;;5.37;;
982;SDS011;480;48.124;11.578;2023-06-26T15:17:05;7.17;;;6.60;;
982;SDS011;480;48.124;11.578;2023-06-26T15:19:34;6.70;;;6.20;;
982;SDS011;480;48.124;11.578;2023-06-26T15:22:02;7.00;;;6.40;;
982;SDS011;480;48.124;11.578;2023-06-26T15:24:29;7.07;;;6.47;;
982;SDS011;480;48.124;11.578;2023-06-26T15:26:56;6.77;;;6.27;;
982;SDS011;480;48.124;11.578;2023-06-26T15:29:23;7.03;;;6.37;;